Stations météo

Publicité
Nimes/Courbessac, France (7645): Température de l'air & dewpoint: 14.07.2018 01:00:00 - 20.07.2018 01:00:00 (CEST)Nimes/Courbessac, France (7645): Température de l'air 5cm: 14.07.2018 01:00:00 - 20.07.2018 01:00:00 (CEST)Nimes/Courbessac, France (7645): Température de l'air -20cm: 14.07.2018 01:00:00 - 20.07.2018 01:00:00 (CEST)Nimes/Courbessac, France (7645): Vitesse du vent & gusts: 14.07.2018 01:00:00 - 20.07.2018 01:00:00 (CEST)Nimes/Courbessac, France (7645): Direction du vent: 14.07.2018 01:00:00 - 20.07.2018 01:00:00 (CEST)Nimes/Courbessac, France (7645): reduced air pressure: 14.07.2018 01:00:00 - 20.07.2018 01:00:00 (CEST)Nimes/Courbessac, France (7645): Ensoleillement: 14.07.2018 01:00:00 - 20.07.2018 01:00:00 (CEST)Nimes/Courbessac, France (7645): Quantités de précipitations: 14.07.2018 01:00:00 - 20.07.2018 01:00:00 (CEST)
Date & Time tt [°C] td [°C] tt 5cm [°C] tt -20cm [°C] ff [km/h] ff [knt] fx [km/h] fx [knt] dd ppp [hPa] sd [min] rr [mm]
20.07.2018 01:00:00 21,9 15,5 19,9 31,2 5 3 9 5 NE 1014,1 0 0,0
20.07.2018 00:00:00 23,2 13,9 21,3 31,4 4 2 9 5 NE 1014,0 0 0,0
19.07.2018 23:00:00 24,5 14,3 22,7 31,5 4 2 14 8 S 1013,4 0 0,0
19.07.2018 22:00:00 26,0 14,5 24,6 31,5 8 4 25 13 S 1012,9 0 0,0
19.07.2018 21:00:00 28,8 13,1 28,3 31,5 14 8 29 15 SW 1012,1 54 0,0
19.07.2018 20:00:00 30,8 12,7 33,0 31,4 16 8 34 18 SW 1012,0 60 0,0
19.07.2018 19:00:00 33,4 14,0 37,5 31,2 16 9 31 17 SSW 1011,7 60 0,0
19.07.2018 18:00:00 35,0 12,6 41,0 30,8 17 9 29 16 S 1011,6 60 0,0
19.07.2018 17:00:00 36,5 10,6 42,8 30,5 6 3 22 12 SE 1011,8 60 0,0
19.07.2018 16:00:00 35,1 10,9 36,9 30,1 10 5 19 10 NNE 1012,3 40 0,0
19.07.2018 15:00:00 36,0 11,6 37,5 29,7 5 3 21 11 S 1012,5 51 0,0
19.07.2018 14:00:00 34,9 10,7 41,3 29,3 5 3 26 14 SE 1013,1 60 0,0
19.07.2018 13:00:00 34,3 10,2 39,5 29,1 16 8 34 19 NE 1013,6 60 0,0
19.07.2018 12:00:00 33,4 10,7 37,5 29,0 18 10 34 19 N 1013,8 60 0,0
19.07.2018 11:00:00 31,8 12,1 35,1 29,0 16 8 33 18 N 1013,9 60 0,0
19.07.2018 10:00:00 29,3 13,1 26,4 29,1 13 7 27 15 N 1013,9 52 0,0
19.07.2018 09:00:00 24,6 13,8 24,1 29,3 10 5 17 9 NNW 1014,1 0 0,0
19.07.2018 08:00:00 23,5 13,4 21,2 29,5 3 1 11 6 NE 1013,9 10 0,0
19.07.2018 07:00:00 21,8 13,4 19,5 29,7 3 1 18 10 WSW 1013,8 10 0,0
19.07.2018 06:00:00 21,6 14,0 18,9 29,9 9 5 16 9 NNW 1013,7 0 0,0
19.07.2018 05:00:00 21,4 14,1 19,4 30,1 5 3 10 5 NW 1013,7 0 0,0
19.07.2018 04:00:00 22,1 14,2 19,9 30,3 8 4 10 6 NNW 1013,7 0 0,0
19.07.2018 03:00:00 23,6 14,3 20,9 30,5 3 2 19 10 SW 1013,8 0 0,0
19.07.2018 02:00:00 24,8 14,3 24,4 30,7 13 7 32 18 E 1013,6 0 0,0
19.07.2018 01:00:00 25,3 14,4 24,6 30,8 23 12 41 22 NNW 1012,6 0 0,0
19.07.2018 00:00:00 25,5 14,6 24,9 31,0 8 4 34 18 WNW 1015,4 0 0,0
18.07.2018 23:00:00 26,1 13,6 25,7 31,1 14 7 31 17 W 1016,0 0 0,0
18.07.2018 22:00:00 26,5 13,6 26,1 31,1 11 6 22 12 SW 1014,6 0 0,0
18.07.2018 21:00:00 27,2 12,8 26,9 31,1 11 6 32 18 SW 1014,0 0 0,0
18.07.2018 20:00:00 28,4 12,3 28,8 30,9 13 7 27 15 WSW 1013,3 15 0,0
18.07.2018 19:00:00 30,3 12,7 32,1 30,7 14 8 30 16 SW 1012,2 48 0,0
18.07.2018 18:00:00 31,9 13,2 37,5 30,4 16 9 35 19 WSW 1012,4 60 0,0
18.07.2018 17:00:00 33,5 14,1 40,6 30,0 22 12 34 18 SSW 1012,7 60 0,0
18.07.2018 16:00:00 35,3 7,4 42,7 29,5 5 3 25 14 WSW 1013,1 60 0,0
18.07.2018 15:00:00 34,2 8,8 41,7 29,1 10 5 31 17 WNW 1013,3 60 0,0
18.07.2018 14:00:00 34,0 9,3 40,3 28,8 9 5 21 12 W 1013,9 60 0,0
18.07.2018 13:00:00 32,4 10,4 38,3 28,5 7 4 24 13 W 1014,6 60 0,0
18.07.2018 12:00:00 31,4 11,7 35,9 28,3 7 4 23 12 NE 1015,2 60 0,0
18.07.2018 11:00:00 28,9 13,2 33,5 28,4 11 6 28 15 N 1015,6 60 0,0
18.07.2018 10:00:00 27,5 12,7 29,3 28,4 16 9 33 18 N 1015,6 60 0,0
18.07.2018 09:00:00 25,4 12,6 26,0 28,6 20 11 35 19 N 1015,7 60 0,0
18.07.2018 08:00:00 23,9 12,8 21,8 28,8 11 6 30 16 NNW 1015,5 60 0,0
18.07.2018 07:00:00 22,5 12,4 20,7 28,9 16 8 27 14 N 1015,1 20 0,0
18.07.2018 06:00:00 21,8 12,1 20,8 29,1 13 7 24 13 N 1014,9 0 0,0
18.07.2018 05:00:00 22,6 12,2 21,6 29,3 13 7 30 16 N 1014,7 0 0,0
18.07.2018 04:00:00 23,1 12,4 22,2 29,5 14 7 28 15 N 1015,0 0 0,0
18.07.2018 03:00:00 24,0 12,6 23,0 29,7 17 9 33 18 N 1015,2 0 0,0
18.07.2018 02:00:00 24,2 12,8 23,2 29,9 13 7 24 13 N 1015,4 0 0,0
18.07.2018 01:00:00 24,9 12,8 23,8 30,0 13 7 24 13 N 1015,3 0 0,0
18.07.2018 00:00:00 25,4 12,3 24,2 30,2 11 6 22 12 N 1015,3 0 0,0
17.07.2018 23:00:00 26,6 12,3 25,1 30,3 7 4 16 9 NNW 1015,0 0 0,0
17.07.2018 22:00:00 27,8 11,8 26,3 30,3 8 4 28 15 N 1014,4 0 0,0
17.07.2018 21:00:00 29,5 11,1 28,4 30,3 12 7 33 18 NNE 1013,7 42 0,0
17.07.2018 20:00:00 31,7 11,5 33,3 30,1 16 9 31 17 NE 1013,3 60 0,0
17.07.2018 19:00:00 33,2 11,7 37,0 29,8 18 10 32 17 NNE 1013,1 60 0,0
17.07.2018 18:00:00 33,9 12,3 38,6 29,5 16 9 33 18 NNE 1013,2 60 0,0
17.07.2018 17:00:00 34,2 12,5 40,2 29,1 16 9 38 21 NNE 1013,5 60 0,0
17.07.2018 16:00:00 34,2 10,7 40,7 28,7 18 10 35 19 N 1013,8 60 0,0
17.07.2018 15:00:00 33,5 10,2 36,2 28,3 15 8 39 21 NNW 1014,3 57 0,0
17.07.2018 14:00:00 32,9 12,0 38,0 27,9 16 9 45 24 N 1014,6 60 0,0
17.07.2018 13:00:00 31,8 13,1 36,8 27,7 20 11 40 22 N 1015,1 60 0,0
17.07.2018 12:00:00 30,7 13,0 34,5 27,5 19 10 41 22 N 1015,2 60 0,0
17.07.2018 11:00:00 29,0 12,8 32,9 27,4 21 11 40 22 NNW 1015,2 60 0,0
17.07.2018 10:00:00 27,5 14,2 29,4 27,5 15 8 36 19 NW 1015,3 60 0,0
17.07.2018 09:00:00 25,3 13,8 26,1 27,6 16 8 32 17 NNW 1015,4 60 0,0
17.07.2018 08:00:00 24,1 13,6 21,0 27,8 10 5 22 12 NNW 1015,4 60 0,0
17.07.2018 07:00:00 22,0 13,4 20,8 27,9 10 6 25 14 NW 1015,0 21 0,0
17.07.2018 06:00:00 21,7 13,3 19,1 28,1 10 6 19 10 NNW 1014,7 0 0,0
17.07.2018 05:00:00 21,0 13,7 19,7 28,3 6 3 27 15 WNW 1014,6 0 0,0
17.07.2018 04:00:00 21,9 13,8 21,0 28,4 12 6 29 16 NW 1014,3 0 0,0
17.07.2018 03:00:00 22,1 13,7 21,4 28,6 12 7 37 20 NW 1014,3 0 0,0
17.07.2018 02:00:00 22,5 14,1 21,8 28,8 20 11 36 19 NW 1014,2 0 0,0
17.07.2018 01:00:00 22,8 14,4 21,9 28,9 17 9 31 17 WNW 1014,0 0 0,0
17.07.2018 00:00:00 22,7 13,5 21,9 29,0 13 7 29 15 WNW 1013,9 0 0,0
16.07.2018 23:00:00 24,0 13,5 23,3 29,1 16 9 40 21 NW 1012,9 0 0,0
16.07.2018 22:00:00 24,5 14,0 24,1 29,1 21 11 45 24 NW 1011,8 0 0,0
16.07.2018 21:00:00 24,9 14,4 24,7 29,1 21 11 38 20 NW 1011,1 0 0,0
16.07.2018 20:00:00 25,7 14,8 26,0 29,1 18 10 38 21 WNW 1010,5 0 0,0
16.07.2018 19:00:00 27,2 14,9 28,5 29,0 16 9 35 19 NW 1009,7 42 0,0
16.07.2018 18:00:00 28,6 16,5 31,0 28,9 18 10 37 20 NW 1009,1 60 0,0
16.07.2018 17:00:00 27,5 16,8 27,9 28,9 14 7 42 23 NW 1008,9 54 0,0
16.07.2018 16:00:00 25,1 16,3 27,2 28,9 19 10 39 21 NW 1009,1 1 0,0
16.07.2018 15:00:00 26,0 17,1 25,1 28,9 20 11 38 21 NW 1009,9 36 0,0
16.07.2018 14:00:00 24,1 18,1 25,4 28,9 13 7 26 14 NNW 1010,5 0 0,0
16.07.2018 13:00:00 23,9 17,6 25,8 29,0 10 6 33 18 NNW 1010,7 19 0,0
16.07.2018 12:00:00 22,6 18,4 19,1 29,1 18 10 32 18 N 1009,8 15 0,4
16.07.2018 11:00:00 20,7 17,7 19,4 29,2 5 3 18 10 WNW 1011,4 0 0,4
16.07.2018 10:00:00 21,4 17,2 19,8 29,3 9 5 22 12 NNE 1009,9 0 0,0
16.07.2018 09:00:00 22,6 15,4 22,9 29,5 11 6 21 12 N 1010,2 3 0,0
16.07.2018 08:00:00 22,6 15,4 21,1 29,7 7 4 15 8 NNE 1010,8 2 0,0
16.07.2018 07:00:00 21,0 15,3 20,4 29,9 3 2 15 8 NE 1011,1 1 0,0
16.07.2018 06:00:00 21,3 14,9 19,7 30,1 9 5 15 8 N 1011,6 0 0,0
16.07.2018 05:00:00 20,6 15,2 18,5 30,3 5 3 16 9 N 1011,8 0 0,0
16.07.2018 04:00:00 21,7 15,3 20,4 30,5 5 3 15 8 ENE 1012,2 0 0,0
16.07.2018 03:00:00 23,1 16,9 22,0 30,7 4 2 11 6 NNW 1014,2 0 0,0
16.07.2018 02:00:00 22,7 20,0 21,6 30,9 6 3 11 6 NNW 1013,9 0 0,0
16.07.2018 01:00:00 23,1 20,2 21,9 31,1 4 2 16 9 NE 1013,4 0 0,0
16.07.2018 00:00:00 23,2 20,3 21,9 31,2 5 3 13 7 NNE 1013,8 0 0,0
15.07.2018 23:00:00 23,7 20,0 22,6 31,3 8 4 13 7 S 1012,9 0 0,0
15.07.2018 22:00:00 24,7 18,4 23,3 31,4 5 3 19 10 SSE 1012,8 0 0,0
15.07.2018 21:00:00 27,4 16,7 26,7 31,3 11 6 22 12 S 1012,0 58 0,0
15.07.2018 20:00:00 29,9 14,0 33,0 31,2 13 7 25 14 S 1011,9 60 0,0
15.07.2018 19:00:00 31,8 13,1 37,0 31,0 18 10 27 15 S 1011,7 60 0,0
15.07.2018 18:00:00 32,9 15,0 37,7 30,7 14 7 29 16 S 1011,8 60 0,0
15.07.2018 17:00:00 34,0 15,5 41,9 30,3 16 9 29 16 S 1011,9 60 0,0
15.07.2018 16:00:00 34,5 13,9 42,0 29,8 14 7 27 15 S 1012,4 60 0,0
15.07.2018 15:00:00 34,5 13,3 41,7 29,5 9 5 26 14 S 1013,1 60 0,0
15.07.2018 14:00:00 33,2 14,3 41,3 29,1 18 10 27 15 S 1013,6 60 0,0
15.07.2018 13:00:00 32,7 13,4 39,7 28,9 7 4 16 9 SW 1014,3 60 0,0
15.07.2018 12:00:00 31,9 15,0 37,1 28,8 7 4 14 8 ESE 1014,5 60 0,0
15.07.2018 11:00:00 29,5 14,5 35,1 28,8 6 4 18 10 NNW 1014,6 60 0,0
15.07.2018 10:00:00 28,5 14,7 28,1 28,9 7 4 20 11 NNE 1014,7 60 0,0
15.07.2018 09:00:00 25,3 14,7 24,0 29,0 13 7 27 15 ENE 1015,0 44 0,0
15.07.2018 08:00:00 22,5 14,9 20,8 29,2 4 2 16 9 NE 1015,2 1 0,0
15.07.2018 07:00:00 22,1 14,7 21,6 29,4 9 5 34 18 ENE 1014,8 0 0,0
15.07.2018 06:00:00 22,2 15,3 20,3 29,6 19 10 37 20 NW 1015,9 0 0,0
15.07.2018 05:00:00 21,2 15,1 18,8 29,8 3 2 8 5 W 1014,8 0 0,0
15.07.2018 04:00:00 20,5 15,1 18,7 30,0 0 0 9 5 N 1014,5 0 0,0
15.07.2018 03:00:00 21,5 15,6 20,5 30,2 7 4 12 6 N 1015,0 0 0,0
15.07.2018 02:00:00 21,5 16,0 19,2 30,4 6 3 11 6 NNW 1015,0 0 0,0
15.07.2018 01:00:00 21,5 15,8 19,2 30,6 0 0 6 4 N 1015,6 0 0,0
15.07.2018 00:00:00 23,2 16,0 21,0 30,7 6 4 18 10 NE 1015,3 0 0,0
14.07.2018 23:00:00 23,6 15,6 21,3 30,9 4 2 8 4 NNW 1014,9 0 0,0
14.07.2018 22:00:00 25,6 15,6 23,4 30,9 5 3 16 9 SSE 1014,4 0 0,0
14.07.2018 21:00:00 27,9 16,8 27,6 30,8 10 6 20 11 SW 1013,8 58 0,0
14.07.2018 20:00:00 29,8 15,9 32,3 30,7 14 8 23 12 SW 1013,8 60 0,0
14.07.2018 19:00:00 30,8 16,4 33,7 30,4 14 7 24 13 S 1013,9 33 0,0
14.07.2018 18:00:00 32,9 17,1 38,6 30,1 14 7 29 15 S 1014,0 58 0,0
14.07.2018 17:00:00 34,0 16,8 42,0 29,8 19 10 29 15 S 1014,0 60 0,0
14.07.2018 16:00:00 34,9 15,3 41,0 29,4 14 7 26 14 SSW 1014,2 39 0,0
14.07.2018 15:00:00 36,6 14,6 39,9 29,0 8 5 19 10 ESE 1014,7 28 0,0
14.07.2018 14:00:00 36,3 15,4 43,1 28,7 6 4 17 9 SE 1015,0 58 0,0
14.07.2018 13:00:00 33,9 13,9 40,6 28,5 9 5 16 9 S 1015,4 58 0,0
14.07.2018 12:00:00 33,0 14,1 35,9 28,4 6 3 16 8 ENE 1015,8 58 0,0
14.07.2018 11:00:00 30,8 16,4 32,1 28,5 8 4 17 9 N 1016,0 60 0,0
14.07.2018 10:00:00 26,6 17,1 26,0 28,6 9 5 20 11 NNW 1016,6 28 0,0
14.07.2018 09:00:00 23,8 15,8 22,9 28,7 9 5 24 13 NW 1016,8 0 0,0
14.07.2018 08:00:00 22,8 14,6 22,2 28,9 15 8 24 13 N 1015,8 9 0,0
14.07.2018 07:00:00 22,2 14,1 19,9 29,1 8 4 16 9 N 1016,1 23 0,0
14.07.2018 06:00:00 20,8 13,2 18,6 29,3 7 4 15 8 N 1016,6 0 0,0
14.07.2018 05:00:00 20,9 13,6 19,7 29,5 5 3 19 10 E 1016,8 0 0,0
14.07.2018 04:00:00 21,3 14,0 19,2 29,7 10 5 15 8 NNW 1017,4 0 0,0
14.07.2018 03:00:00 21,7 13,1 19,2 29,9 5 3 8 4 W 1017,9 0 0,0
14.07.2018 02:00:00 20,9 12,3 19,2 30,1 6 3 8 4 NNW 1016,8 0 0,0
14.07.2018 01:00:00 21,8 12,4 19,2 30,3 3 2 6 3 NNW 1017,1 0 0,0

tt = Température de l'air
td = dewpoint
tt 5cm = Température de l'air 5cm
tt -20cm = Température de l'air -20cm
ff = Vitesse du vent
fx = gusts
dd = Direction du vent
ppp = reduced air pressure
sd = Ensoleillement
rr = Quantités de précipitations

stations d'obs. à proximité